sensor_id;sensor_type;location;lat;lon;timestamp;P1;durP1;ratioP1;P2;durP2;ratioP2
37945;SDS011;23769;52.478;13.448;2023-05-23T00:00:59;6.38;;;3.30;;
37945;SDS011;23769;52.478;13.448;2023-05-23T00:03:27;4.85;;;3.58;;
37945;SDS011;23769;52.478;13.448;2023-05-23T00:05:56;5.78;;;3.42;;
37945;SDS011;23769;52.478;13.448;2023-05-23T00:08:24;4.97;;;3.67;;
37945;SDS011;23769;52.478;13.448;2023-05-23T00:10:51;10.48;;;6.13;;
37945;SDS011;23769;52.478;13.448;2023-05-23T00:13:18;6.28;;;3.38;;
37945;SDS011;23769;52.478;13.448;2023-05-23T00:15:45;5.47;;;3.47;;
37945;SDS011;23769;52.478;13.448;2023-05-23T00:18:13;7.60;;;3.75;;
37945;SDS011;23769;52.478;13.448;2023-05-23T00:20:40;5.93;;;3.30;;
37945;SDS011;23769;52.478;13.448;2023-05-23T00:23:10;7.90;;;3.70;;
37945;SDS011;23769;52.478;13.448;2023-05-23T00:25:43;9.35;;;3.70;;
37945;SDS011;23769;52.478;13.448;2023-05-23T00:28:12;5.28;;;3.40;;
37945;SDS011;23769;52.478;13.448;2023-05-23T00:30:41;7.07;;;3.17;;
37945;SDS011;23769;52.478;13.448;2023-05-23T00:33:08;6.05;;;4.03;;
37945;SDS011;23769;52.478;13.448;2023-05-23T00:35:38;10.13;;;3.97;;
37945;SDS011;23769;52.478;13.448;2023-05-23T00:38:05;5.68;;;3.35;;
37945;SDS011;23769;52.478;13.448;2023-05-23T00:40:34;6.15;;;3.55;;
37945;SDS011;23769;52.478;13.448;2023-05-23T00:43:01;6.00;;;3.55;;
37945;SDS011;23769;52.478;13.448;2023-05-23T00:45:28;6.32;;;4.18;;
37945;SDS011;23769;52.478;13.448;2023-05-23T00:47:55;5.55;;;3.92;;
37945;SDS011;23769;52.478;13.448;2023-05-23T00:50:23;4.68;;;3.28;;
37945;SDS011;23769;52.478;13.448;2023-05-23T00:52:54;8.48;;;3.83;;
37945;SDS011;23769;52.478;13.448;2023-05-23T00:55:21;6.07;;;3.40;;
37945;SDS011;23769;52.478;13.448;2023-05-23T00:57:50;5.30;;;3.10;;
37945;SDS011;23769;52.478;13.448;2023-05-23T01:00:19;4.95;;;3.63;;
37945;SDS011;23769;52.478;13.448;2023-05-23T01:02:47;5.80;;;4.07;;
37945;SDS011;23769;52.478;13.448;2023-05-23T01:05:16;6.95;;;3.47;;
37945;SDS011;23769;52.478;13.448;2023-05-23T01:07:44;6.63;;;3.35;;
37945;SDS011;23769;52.478;13.448;2023-05-23T01:10:11;5.53;;;3.63;;
37945;SDS011;23769;52.478;13.448;2023-05-23T01:12:40;5.90;;;3.58;;
37945;SDS011;23769;52.478;13.448;2023-05-23T01:15:12;4.40;;;3.17;;
37945;SDS011;23769;52.478;13.448;2023-05-23T01:17:42;7.15;;;3.67;;
37945;SDS011;23769;52.478;13.448;2023-05-23T01:20:11;6.50;;;3.45;;
37945;SDS011;23769;52.478;13.448;2023-05-23T01:22:54;6.43;;;4.03;;
37945;SDS011;23769;52.478;13.448;2023-05-23T01:25:27;5.97;;;3.10;;
37945;SDS011;23769;52.478;13.448;2023-05-23T01:27:56;5.32;;;3.40;;
37945;SDS011;23769;52.478;13.448;2023-05-23T01:30:26;7.78;;;3.50;;
37945;SDS011;23769;52.478;13.448;2023-05-23T01:32:55;7.97;;;3.70;;
37945;SDS011;23769;52.478;13.448;2023-05-23T01:35:25;4.68;;;3.40;;
37945;SDS011;23769;52.478;13.448;2023-05-23T01:37:52;5.72;;;3.53;;
37945;SDS011;23769;52.478;13.448;2023-05-23T01:40:20;5.68;;;4.00;;
37945;SDS011;23769;52.478;13.448;2023-05-23T01:42:47;5.45;;;3.53;;
37945;SDS011;23769;52.478;13.448;2023-05-23T01:45:15;15.07;;;3.92;;
37945;SDS011;23769;52.478;13.448;2023-05-23T01:47:43;5.22;;;3.55;;
37945;SDS011;23769;52.478;13.448;2023-05-23T01:50:10;7.40;;;3.70;;
37945;SDS011;23769;52.478;13.448;2023-05-23T01:52:38;6.25;;;3.40;;
37945;SDS011;23769;52.478;13.448;2023-05-23T01:55:05;6.57;;;3.90;;
37945;SDS011;23769;52.478;13.448;2023-05-23T01:57:34;6.82;;;3.70;;
37945;SDS011;23769;52.478;13.448;2023-05-23T02:00:02;6.45;;;3.83;;
37945;SDS011;23769;52.478;13.448;2023-05-23T02:02:31;5.85;;;3.70;;
37945;SDS011;23769;52.478;13.448;2023-05-23T02:04:58;7.55;;;3.53;;
37945;SDS011;23769;52.478;13.448;2023-05-23T02:07:26;8.32;;;3.80;;
37945;SDS011;23769;52.478;13.448;2023-05-23T02:09:53;6.82;;;5.00;;
37945;SDS011;23769;52.478;13.448;2023-05-23T02:12:20;8.05;;;4.00;;
37945;SDS011;23769;52.478;13.448;2023-05-23T02:14:48;9.90;;;3.63;;
37945;SDS011;23769;52.478;13.448;2023-05-23T02:17:16;5.68;;;3.63;;
37945;SDS011;23769;52.478;13.448;2023-05-23T02:19:44;8.95;;;3.85;;
37945;SDS011;23769;52.478;13.448;2023-05-23T02:22:11;6.18;;;3.70;;
37945;SDS011;23769;52.478;13.448;2023-05-23T02:24:39;10.07;;;4.57;;
37945;SDS011;23769;52.478;13.448;2023-05-23T02:27:06;6.63;;;3.78;;
37945;SDS011;23769;52.478;13.448;2023-05-23T02:29:33;7.45;;;3.80;;
37945;SDS011;23769;52.478;13.448;2023-05-23T02:32:01;6.90;;;3.80;;
37945;SDS011;23769;52.478;13.448;2023-05-23T02:34:28;5.68;;;3.83;;
37945;SDS011;23769;52.478;13.448;2023-05-23T02:36:57;6.03;;;3.63;;
37945;SDS011;23769;52.478;13.448;2023-05-23T02:39:25;5.03;;;3.45;;
37945;SDS011;23769;52.478;13.448;2023-05-23T02:41:52;9.95;;;4.10;;
37945;SDS011;23769;52.478;13.448;2023-05-23T02:44:20;5.60;;;4.47;;
37945;SDS011;23769;52.478;13.448;2023-05-23T02:46:47;8.48;;;3.90;;
37945;SDS011;23769;52.478;13.448;2023-05-23T02:49:14;7.78;;;4.35;;
37945;SDS011;23769;52.478;13.448;2023-05-23T02:51:41;6.60;;;4.25;;
37945;SDS011;23769;52.478;13.448;2023-05-23T02:54:10;6.78;;;3.80;;
37945;SDS011;23769;52.478;13.448;2023-05-23T02:56:37;7.90;;;4.32;;
37945;SDS011;23769;52.478;13.448;2023-05-23T02:59:04;10.45;;;4.70;;
37945;SDS011;23769;52.478;13.448;2023-05-23T03:01:31;6.63;;;4.15;;
37945;SDS011;23769;52.478;13.448;2023-05-23T03:03:59;7.28;;;4.20;;
37945;SDS011;23769;52.478;13.448;2023-05-23T03:06:26;5.85;;;4.30;;
37945;SDS011;23769;52.478;13.448;2023-05-23T03:08:57;6.68;;;3.97;;
37945;SDS011;23769;52.478;13.448;2023-05-23T03:11:26;8.45;;;4.15;;
37945;SDS011;23769;52.478;13.448;2023-05-23T03:13:54;8.75;;;4.78;;
37945;SDS011;23769;52.478;13.448;2023-05-23T03:16:21;6.05;;;4.28;;
37945;SDS011;23769;52.478;13.448;2023-05-23T03:18:48;7.38;;;4.10;;
37945;SDS011;23769;52.478;13.448;2023-05-23T03:21:15;7.60;;;3.90;;
37945;SDS011;23769;52.478;13.448;2023-05-23T03:23:42;9.32;;;4.40;;
37945;SDS011;23769;52.478;13.448;2023-05-23T03:26:10;7.25;;;3.92;;
37945;SDS011;23769;52.478;13.448;2023-05-23T03:28:38;5.95;;;4.50;;
37945;SDS011;23769;52.478;13.448;2023-05-23T03:31:05;6.55;;;4.05;;
37945;SDS011;23769;52.478;13.448;2023-05-23T03:33:32;9.30;;;4.20;;
37945;SDS011;23769;52.478;13.448;2023-05-23T03:36:00;8.18;;;4.40;;
37945;SDS011;23769;52.478;13.448;2023-05-23T03:38:27;7.05;;;4.00;;
37945;SDS011;23769;52.478;13.448;2023-05-23T03:40:54;7.07;;;4.35;;
37945;SDS011;23769;52.478;13.448;2023-05-23T03:43:21;7.03;;;4.28;;
37945;SDS011;23769;52.478;13.448;2023-05-23T03:45:50;7.60;;;4.18;;
37945;SDS011;23769;52.478;13.448;2023-05-23T03:48:17;7.60;;;4.18;;
37945;SDS011;23769;52.478;13.448;2023-05-23T03:50:44;5.90;;;3.97;;
37945;SDS011;23769;52.478;13.448;2023-05-23T03:53:12;6.13;;;4.32;;
37945;SDS011;23769;52.478;13.448;2023-05-23T03:55:39;6.82;;;4.60;;
37945;SDS011;23769;52.478;13.448;2023-05-23T03:58:06;6.95;;;4.60;;
37945;SDS011;23769;52.478;13.448;2023-05-23T04:00:33;8.52;;;4.95;;
37945;SDS011;23769;52.478;13.448;2023-05-23T04:03:02;11.10;;;4.65;;
37945;SDS011;23769;52.478;13.448;2023-05-23T04:05:29;12.15;;;4.90;;
37945;SDS011;23769;52.478;13.448;2023-05-23T04:07:57;8.57;;;4.63;;
37945;SDS011;23769;52.478;13.448;2023-05-23T04:10:25;7.57;;;4.75;;
37945;SDS011;23769;52.478;13.448;2023-05-23T04:12:52;7.50;;;4.65;;
37945;SDS011;23769;52.478;13.448;2023-05-23T04:15:20;9.02;;;5.05;;
37945;SDS011;23769;52.478;13.448;2023-05-23T04:17:48;7.68;;;4.50;;
37945;SDS011;23769;52.478;13.448;2023-05-23T04:20:17;10.43;;;4.40;;
37945;SDS011;23769;52.478;13.448;2023-05-23T04:22:45;7.03;;;4.38;;
37945;SDS011;23769;52.478;13.448;2023-05-23T04:25:12;11.43;;;4.88;;
37945;SDS011;23769;52.478;13.448;2023-05-23T04:27:39;13.30;;;7.70;;
37945;SDS011;23769;52.478;13.448;2023-05-23T04:30:06;9.80;;;5.13;;
37945;SDS011;23769;52.478;13.448;2023-05-23T04:32:34;8.10;;;4.93;;
37945;SDS011;23769;52.478;13.448;2023-05-23T04:35:02;6.80;;;3.70;;
37945;SDS011;23769;52.478;13.448;2023-05-23T04:37:30;6.30;;;4.40;;
37945;SDS011;23769;52.478;13.448;2023-05-23T04:39:58;7.03;;;4.35;;
37945;SDS011;23769;52.478;13.448;2023-05-23T04:42:25;8.50;;;4.78;;
37945;SDS011;23769;52.478;13.448;2023-05-23T04:44:53;7.85;;;4.75;;
37945;SDS011;23769;52.478;13.448;2023-05-23T04:47:22;8.13;;;4.22;;
37945;SDS011;23769;52.478;13.448;2023-05-23T04:49:52;10.00;;;4.72;;
37945;SDS011;23769;52.478;13.448;2023-05-23T04:52:21;8.13;;;4.90;;
37945;SDS011;23769;52.478;13.448;2023-05-23T04:54:49;7.18;;;5.00;;
37945;SDS011;23769;52.478;13.448;2023-05-23T04:57:18;11.65;;;4.82;;
37945;SDS011;23769;52.478;13.448;2023-05-23T04:59:46;6.85;;;4.47;;
37945;SDS011;23769;52.478;13.448;2023-05-23T05:02:13;8.43;;;4.63;;
37945;SDS011;23769;52.478;13.448;2023-05-23T05:04:51;9.05;;;5.10;;
37945;SDS011;23769;52.478;13.448;2023-05-23T05:07:18;7.75;;;4.40;;
37945;SDS011;23769;52.478;13.448;2023-05-23T05:09:45;9.07;;;4.55;;
37945;SDS011;23769;52.478;13.448;2023-05-23T05:12:13;9.32;;;4.88;;
37945;SDS011;23769;52.478;13.448;2023-05-23T05:14:41;6.88;;;4.57;;
37945;SDS011;23769;52.478;13.448;2023-05-23T05:17:08;9.60;;;4.57;;
37945;SDS011;23769;52.478;13.448;2023-05-23T05:19:35;5.90;;;4.53;;
37945;SDS011;23769;52.478;13.448;2023-05-23T05:22:02;5.18;;;4.32;;
37945;SDS011;23769;52.478;13.448;2023-05-23T05:24:30;7.32;;;4.80;;
37945;SDS011;23769;52.478;13.448;2023-05-23T05:26:57;5.90;;;4.20;;
37945;SDS011;23769;52.478;13.448;2023-05-23T05:29:26;8.05;;;4.88;;
37945;SDS011;23769;52.478;13.448;2023-05-23T05:31:53;12.23;;;6.75;;
37945;SDS011;23769;52.478;13.448;2023-05-23T05:34:20;11.15;;;7.00;;
37945;SDS011;23769;52.478;13.448;2023-05-23T05:36:47;8.82;;;5.25;;
37945;SDS011;23769;52.478;13.448;2023-05-23T05:39:15;10.43;;;4.95;;
37945;SDS011;23769;52.478;13.448;2023-05-23T05:41:42;7.43;;;4.88;;
37945;SDS011;23769;52.478;13.448;2023-05-23T05:44:09;8.73;;;5.40;;
37945;SDS011;23769;52.478;13.448;2023-05-23T05:46:38;9.40;;;4.68;;
37945;SDS011;23769;52.478;13.448;2023-05-23T05:49:05;8.35;;;5.50;;
37945;SDS011;23769;52.478;13.448;2023-05-23T05:51:32;13.32;;;5.60;;
37945;SDS011;23769;52.478;13.448;2023-05-23T05:53:59;11.38;;;5.75;;
37945;SDS011;23769;52.478;13.448;2023-05-23T05:56:26;7.32;;;5.43;;
37945;SDS011;23769;52.478;13.448;2023-05-23T05:58:53;11.63;;;5.03;;
37945;SDS011;23769;52.478;13.448;2023-05-23T06:01:20;11.23;;;5.15;;
37945;SDS011;23769;52.478;13.448;2023-05-23T06:03:50;8.75;;;5.07;;
37945;SDS011;23769;52.478;13.448;2023-05-23T06:06:18;13.68;;;5.82;;
37945;SDS011;23769;52.478;13.448;2023-05-23T06:08:46;8.95;;;5.15;;
37945;SDS011;23769;52.478;13.448;2023-05-23T06:11:13;9.13;;;5.45;;
37945;SDS011;23769;52.478;13.448;2023-05-23T06:13:41;10.73;;;5.13;;
37945;SDS011;23769;52.478;13.448;2023-05-23T06:16:08;13.57;;;5.22;;
37945;SDS011;23769;52.478;13.448;2023-05-23T06:18:36;10.32;;;5.32;;
37945;SDS011;23769;52.478;13.448;2023-05-23T06:21:04;10.88;;;5.63;;
37945;SDS011;23769;52.478;13.448;2023-05-23T06:23:31;9.68;;;4.80;;
37945;SDS011;23769;52.478;13.448;2023-05-23T06:25:59;9.48;;;5.35;;
37945;SDS011;23769;52.478;13.448;2023-05-23T06:28:26;14.57;;;5.25;;
37945;SDS011;23769;52.478;13.448;2023-05-23T06:30:53;12.27;;;5.72;;
37945;SDS011;23769;52.478;13.448;2023-05-23T06:33:20;8.63;;;5.53;;
37945;SDS011;23769;52.478;13.448;2023-05-23T06:35:47;16.23;;;6.00;;
37945;SDS011;23769;52.478;13.448;2023-05-23T06:38:16;11.57;;;5.32;;
37945;SDS011;23769;52.478;13.448;2023-05-23T06:40:43;12.98;;;6.22;;
37945;SDS011;23769;52.478;13.448;2023-05-23T06:43:10;12.10;;;6.18;;
37945;SDS011;23769;52.478;13.448;2023-05-23T06:45:37;11.20;;;5.43;;
37945;SDS011;23769;52.478;13.448;2023-05-23T06:48:04;13.35;;;6.55;;
37945;SDS011;23769;52.478;13.448;2023-05-23T06:50:32;9.75;;;6.43;;
37945;SDS011;23769;52.478;13.448;2023-05-23T06:52:59;15.48;;;6.72;;
37945;SDS011;23769;52.478;13.448;2023-05-23T06:55:27;8.75;;;6.18;;
37945;SDS011;23769;52.478;13.448;2023-05-23T06:57:55;10.70;;;6.22;;
37945;SDS011;23769;52.478;13.448;2023-05-23T07:00:23;10.10;;;6.50;;
37945;SDS011;23769;52.478;13.448;2023-05-23T07:02:50;10.63;;;5.53;;
37945;SDS011;23769;52.478;13.448;2023-05-23T07:05:17;11.52;;;6.20;;
37945;SDS011;23769;52.478;13.448;2023-05-23T07:07:45;8.02;;;5.43;;
37945;SDS011;23769;52.478;13.448;2023-05-23T07:10:12;8.73;;;5.32;;
37945;SDS011;23769;52.478;13.448;2023-05-23T07:12:41;8.63;;;5.40;;
37945;SDS011;23769;52.478;13.448;2023-05-23T07:15:09;9.65;;;5.82;;
37945;SDS011;23769;52.478;13.448;2023-05-23T07:17:36;12.88;;;6.35;;
37945;SDS011;23769;52.478;13.448;2023-05-23T07:20:03;7.32;;;4.90;;
37945;SDS011;23769;52.478;13.448;2023-05-23T07:22:30;9.02;;;5.10;;
37945;SDS011;23769;52.478;13.448;2023-05-23T07:24:58;8.52;;;5.38;;
37945;SDS011;23769;52.478;13.448;2023-05-23T07:27:25;9.98;;;5.68;;
37945;SDS011;23769;52.478;13.448;2023-05-23T07:29:54;7.47;;;5.93;;
37945;SDS011;23769;52.478;13.448;2023-05-23T07:32:21;13.57;;;6.22;;
37945;SDS011;23769;52.478;13.448;2023-05-23T07:34:48;11.55;;;6.38;;
37945;SDS011;23769;52.478;13.448;2023-05-23T07:37:16;7.45;;;4.90;;
37945;SDS011;23769;52.478;13.448;2023-05-23T07:39:43;8.15;;;4.95;;
37945;SDS011;23769;52.478;13.448;2023-05-23T07:42:10;11.65;;;6.30;;
37945;SDS011;23769;52.478;13.448;2023-05-23T07:44:37;8.05;;;5.25;;
37945;SDS011;23769;52.478;13.448;2023-05-23T07:47:05;8.02;;;4.75;;
37945;SDS011;23769;52.478;13.448;2023-05-23T07:49:33;20.40;;;5.22;;
37945;SDS011;23769;52.478;13.448;2023-05-23T07:52:00;14.07;;;6.30;;
37945;SDS011;23769;52.478;13.448;2023-05-23T07:54:27;9.65;;;5.22;;
37945;SDS011;23769;52.478;13.448;2023-05-23T07:56:54;7.72;;;4.78;;
37945;SDS011;23769;52.478;13.448;2023-05-23T07:59:22;16.95;;;5.93;;
37945;SDS011;23769;52.478;13.448;2023-05-23T08:01:49;9.20;;;5.57;;
37945;SDS011;23769;52.478;13.448;2023-05-23T08:04:17;11.18;;;6.15;;
37945;SDS011;23769;52.478;13.448;2023-05-23T08:06:45;10.23;;;5.15;;
37945;SDS011;23769;52.478;13.448;2023-05-23T08:09:12;10.20;;;4.95;;
37945;SDS011;23769;52.478;13.448;2023-05-23T08:11:40;10.13;;;6.05;;
37945;SDS011;23769;52.478;13.448;2023-05-23T08:14:07;6.25;;;4.38;;
37945;SDS011;23769;52.478;13.448;2023-05-23T08:16:34;8.13;;;5.07;;
37945;SDS011;23769;52.478;13.448;2023-05-23T08:19:01;8.77;;;5.32;;
37945;SDS011;23769;52.478;13.448;2023-05-23T08:21:30;9.85;;;5.78;;
37945;SDS011;23769;52.478;13.448;2023-05-23T08:23:57;6.50;;;4.85;;
37945;SDS011;23769;52.478;13.448;2023-05-23T08:26:25;8.63;;;4.88;;
37945;SDS011;23769;52.478;13.448;2023-05-23T08:28:58;8.07;;;6.00;;
37945;SDS011;23769;52.478;13.448;2023-05-23T08:31:26;7.05;;;4.75;;
37945;SDS011;23769;52.478;13.448;2023-05-23T08:33:53;9.48;;;5.00;;
37945;SDS011;23769;52.478;13.448;2023-05-23T08:36:21;6.53;;;4.80;;
37945;SDS011;23769;52.478;13.448;2023-05-23T08:38:49;12.07;;;5.65;;
37945;SDS011;23769;52.478;13.448;2023-05-23T08:41:17;11.05;;;5.32;;
37945;SDS011;23769;52.478;13.448;2023-05-23T08:43:45;9.05;;;6.32;;
37945;SDS011;23769;52.478;13.448;2023-05-23T08:46:12;12.13;;;5.60;;
37945;SDS011;23769;52.478;13.448;2023-05-23T08:48:41;9.18;;;5.35;;
37945;SDS011;23769;52.478;13.448;2023-05-23T08:51:08;8.32;;;4.63;;
37945;SDS011;23769;52.478;13.448;2023-05-23T08:53:37;16.85;;;4.88;;
37945;SDS011;23769;52.478;13.448;2023-05-23T08:56:07;8.77;;;5.45;;
37945;SDS011;23769;52.478;13.448;2023-05-23T08:58:35;7.40;;;5.13;;
37945;SDS011;23769;52.478;13.448;2023-05-23T09:01:02;7.60;;;4.90;;
37945;SDS011;23769;52.478;13.448;2023-05-23T09:03:30;9.48;;;4.90;;
37945;SDS011;23769;52.478;13.448;2023-05-23T09:05:57;6.18;;;4.88;;
37945;SDS011;23769;52.478;13.448;2023-05-23T09:08:25;7.47;;;5.28;;
37945;SDS011;23769;52.478;13.448;2023-05-23T09:10:52;10.60;;;5.68;;
37945;SDS011;23769;52.478;13.448;2023-05-23T09:13:21;6.95;;;5.45;;
37945;SDS011;23769;52.478;13.448;2023-05-23T09:15:56;10.05;;;5.68;;
37945;SDS011;23769;52.478;13.448;2023-05-23T09:18:24;8.13;;;5.30;;
37945;SDS011;23769;52.478;13.448;2023-05-23T09:20:52;7.45;;;4.75;;
37945;SDS011;23769;52.478;13.448;2023-05-23T09:23:19;9.80;;;4.82;;
37945;SDS011;23769;52.478;13.448;2023-05-23T09:25:46;7.53;;;5.35;;
37945;SDS011;23769;52.478;13.448;2023-05-23T09:28:13;9.40;;;5.43;;
37945;SDS011;23769;52.478;13.448;2023-05-23T09:30:42;7.53;;;5.47;;
37945;SDS011;23769;52.478;13.448;2023-05-23T09:33:09;6.63;;;4.90;;
37945;SDS011;23769;52.478;13.448;2023-05-23T09:35:42;7.05;;;5.00;;
37945;SDS011;23769;52.478;13.448;2023-05-23T09:38:10;9.63;;;6.28;;
37945;SDS011;23769;52.478;13.448;2023-05-23T09:40:37;8.15;;;5.38;;
37945;SDS011;23769;52.478;13.448;2023-05-23T09:43:10;8.10;;;5.60;;
37945;SDS011;23769;52.478;13.448;2023-05-23T09:45:37;6.35;;;5.05;;
37945;SDS011;23769;52.478;13.448;2023-05-23T09:48:06;6.82;;;5.35;;
37945;SDS011;23769;52.478;13.448;2023-05-23T09:50:37;9.95;;;6.22;;
37945;SDS011;23769;52.478;13.448;2023-05-23T09:53:05;8.57;;;6.55;;
37945;SDS011;23769;52.478;13.448;2023-05-23T09:55:32;8.43;;;5.63;;
37945;SDS011;23769;52.478;13.448;2023-05-23T09:58:01;9.38;;;6.72;;
37945;SDS011;23769;52.478;13.448;2023-05-23T10:00:29;7.00;;;4.93;;
37945;SDS011;23769;52.478;13.448;2023-05-23T10:03:04;6.40;;;4.95;;
37945;SDS011;23769;52.478;13.448;2023-05-23T10:05:36;8.13;;;5.28;;
37945;SDS011;23769;52.478;13.448;2023-05-23T10:08:06;6.68;;;5.18;;
37945;SDS011;23769;52.478;13.448;2023-05-23T10:10:34;8.27;;;6.03;;
37945;SDS011;23769;52.478;13.448;2023-05-23T10:13:19;7.85;;;5.22;;
37945;SDS011;23769;52.478;13.448;2023-05-23T10:15:47;8.80;;;5.45;;
37945;SDS011;23769;52.478;13.448;2023-05-23T10:18:17;9.25;;;5.47;;
37945;SDS011;23769;52.478;13.448;2023-05-23T10:20:48;8.18;;;6.10;;
37945;SDS011;23769;52.478;13.448;2023-05-23T10:23:18;8.25;;;5.88;;
37945;SDS011;23769;52.478;13.448;2023-05-23T10:25:46;10.70;;;5.78;;
37945;SDS011;23769;52.478;13.448;2023-05-23T10:28:14;9.93;;;6.22;;
37945;SDS011;23769;52.478;13.448;2023-05-23T10:30:41;8.10;;;6.38;;
37945;SDS011;23769;52.478;13.448;2023-05-23T10:33:10;9.52;;;6.57;;
37945;SDS011;23769;52.478;13.448;2023-05-23T10:35:46;9.65;;;6.80;;
37945;SDS011;23769;52.478;13.448;2023-05-23T10:38:22;10.45;;;8.23;;
37945;SDS011;23769;52.478;13.448;2023-05-23T10:40:52;13.25;;;7.85;;
37945;SDS011;23769;52.478;13.448;2023-05-23T10:43:22;8.93;;;7.97;;
37945;SDS011;23769;52.478;13.448;2023-05-23T10:45:51;8.88;;;7.88;;
37945;SDS011;23769;52.478;13.448;2023-05-23T10:48:30;10.55;;;7.68;;
37945;SDS011;23769;52.478;13.448;2023-05-23T10:51:03;10.90;;;8.43;;
37945;SDS011;23769;52.478;13.448;2023-05-23T10:53:33;13.77;;;9.30;;
37945;SDS011;23769;52.478;13.448;2023-05-23T10:56:04;11.00;;;8.32;;
37945;SDS011;23769;52.478;13.448;2023-05-23T10:58:32;10.93;;;8.65;;
37945;SDS011;23769;52.478;13.448;2023-05-23T11:01:01;8.68;;;7.70;;
37945;SDS011;23769;52.478;13.448;2023-05-23T11:03:31;10.55;;;8.77;;
37945;SDS011;23769;52.478;13.448;2023-05-23T11:05:59;10.73;;;8.60;;
37945;SDS011;23769;52.478;13.448;2023-05-23T11:08:27;10.23;;;9.02;;
37945;SDS011;23769;52.478;13.448;2023-05-23T11:11:04;11.10;;;8.40;;
37945;SDS011;23769;52.478;13.448;2023-05-23T11:13:53;8.00;;;7.20;;
37945;SDS011;23769;52.478;13.448;2023-05-23T11:16:24;8.60;;;7.45;;
37945;SDS011;23769;52.478;13.448;2023-05-23T11:18:51;10.27;;;8.95;;
37945;SDS011;23769;52.478;13.448;2023-05-23T11:21:18;12.75;;;10.88;;
37945;SDS011;23769;52.478;13.448;2023-05-23T11:23:47;11.05;;;9.93;;
37945;SDS011;23769;52.478;13.448;2023-05-23T11:26:31;14.90;;;10.43;;
37945;SDS011;23769;52.478;13.448;2023-05-23T11:28:58;12.27;;;10.45;;
37945;SDS011;23769;52.478;13.448;2023-05-23T11:31:28;13.20;;;10.50;;
37945;SDS011;23769;52.478;13.448;2023-05-23T11:33:55;11.90;;;10.38;;
37945;SDS011;23769;52.478;13.448;2023-05-23T11:36:22;11.65;;;10.45;;
37945;SDS011;23769;52.478;13.448;2023-05-23T11:38:50;14.95;;;11.90;;
37945;SDS011;23769;52.478;13.448;2023-05-23T11:41:18;14.95;;;12.75;;
37945;SDS011;23769;52.478;13.448;2023-05-23T11:43:50;16.73;;;13.55;;
37945;SDS011;23769;52.478;13.448;2023-05-23T11:46:18;15.77;;;13.82;;
37945;SDS011;23769;52.478;13.448;2023-05-23T11:48:45;17.45;;;14.48;;
37945;SDS011;23769;52.478;13.448;2023-05-23T11:51:13;19.45;;;13.57;;
37945;SDS011;23769;52.478;13.448;2023-05-23T11:53:40;14.68;;;11.52;;
37945;SDS011;23769;52.478;13.448;2023-05-23T11:56:07;14.77;;;12.02;;
37945;SDS011;23769;52.478;13.448;2023-05-23T11:58:35;17.85;;;12.68;;
37945;SDS011;23769;52.478;13.448;2023-05-23T12:01:05;14.65;;;11.85;;
37945;SDS011;23769;52.478;13.448;2023-05-23T12:03:32;16.10;;;13.35;;
37945;SDS011;23769;52.478;13.448;2023-05-23T12:06:00;14.82;;;13.23;;
37945;SDS011;23769;52.478;13.448;2023-05-23T12:08:27;15.27;;;13.60;;
37945;SDS011;23769;52.478;13.448;2023-05-23T12:10:56;16.80;;;14.18;;
37945;SDS011;23769;52.478;13.448;2023-05-23T12:13:24;16.77;;;14.07;;
37945;SDS011;23769;52.478;13.448;2023-05-23T12:15:52;17.05;;;13.93;;
37945;SDS011;23769;52.478;13.448;2023-05-23T12:18:21;17.10;;;14.02;;
37945;SDS011;23769;52.478;13.448;2023-05-23T12:20:48;18.90;;;14.68;;
37945;SDS011;23769;52.478;13.448;2023-05-23T12:23:19;16.77;;;13.82;;
37945;SDS011;23769;52.478;13.448;2023-05-23T12:25:48;15.73;;;14.00;;
37945;SDS011;23769;52.478;13.448;2023-05-23T12:28:17;18.90;;;15.05;;
37945;SDS011;23769;52.478;13.448;2023-05-23T12:30:44;16.38;;;14.23;;
37945;SDS011;23769;52.478;13.448;2023-05-23T12:33:11;17.30;;;14.23;;
37945;SDS011;23769;52.478;13.448;2023-05-23T12:35:43;18.40;;;14.45;;
37945;SDS011;23769;52.478;13.448;2023-05-23T12:38:13;16.13;;;13.98;;
37945;SDS011;23769;52.478;13.448;2023-05-23T12:40:41;18.80;;;14.27;;
37945;SDS011;23769;52.478;13.448;2023-05-23T12:43:09;15.98;;;14.23;;
37945;SDS011;23769;52.478;13.448;2023-05-23T12:45:36;13.32;;;11.93;;
37945;SDS011;23769;52.478;13.448;2023-05-23T12:48:04;16.02;;;14.20;;
37945;SDS011;23769;52.478;13.448;2023-05-23T12:50:32;15.93;;;14.30;;
37945;SDS011;23769;52.478;13.448;2023-05-23T12:53:01;18.63;;;15.45;;
37945;SDS011;23769;52.478;13.448;2023-05-23T12:55:28;15.07;;;13.48;;
37945;SDS011;23769;52.478;13.448;2023-05-23T12:57:55;15.30;;;13.65;;
37945;SDS011;23769;52.478;13.448;2023-05-23T13:00:23;15.98;;;14.27;;
37945;SDS011;23769;52.478;13.448;2023-05-23T13:02:50;15.85;;;12.00;;
37945;SDS011;23769;52.478;13.448;2023-05-23T13:05:17;13.52;;;11.68;;
37945;SDS011;23769;52.478;13.448;2023-05-23T13:07:46;12.73;;;11.23;;
37945;SDS011;23769;52.478;13.448;2023-05-23T13:10:15;15.40;;;12.82;;
37945;SDS011;23769;52.478;13.448;2023-05-23T13:12:43;12.18;;;10.32;;
37945;SDS011;23769;52.478;13.448;2023-05-23T13:15:10;13.18;;;11.82;;
37945;SDS011;23769;52.478;13.448;2023-05-23T13:17:37;13.60;;;11.93;;
37945;SDS011;23769;52.478;13.448;2023-05-23T13:20:05;12.43;;;11.13;;
37945;SDS011;23769;52.478;13.448;2023-05-23T13:22:33;12.73;;;11.30;;
37945;SDS011;23769;52.478;13.448;2023-05-23T13:25:00;14.82;;;12.45;;
37945;SDS011;23769;52.478;13.448;2023-05-23T13:27:29;15.40;;;12.75;;
37945;SDS011;23769;52.478;13.448;2023-05-23T13:29:56;16.25;;;13.65;;
37945;SDS011;23769;52.478;13.448;2023-05-23T13:32:23;16.63;;;14.43;;
37945;SDS011;23769;52.478;13.448;2023-05-23T13:34:50;18.88;;;15.20;;
37945;SDS011;23769;52.478;13.448;2023-05-23T13:37:18;16.23;;;14.52;;
37945;SDS011;23769;52.478;13.448;2023-05-23T13:39:45;17.80;;;15.32;;
37945;SDS011;23769;52.478;13.448;2023-05-23T13:42:12;21.35;;;14.57;;
37945;SDS011;23769;52.478;13.448;2023-05-23T13:44:40;20.85;;;15.45;;
37945;SDS011;23769;52.478;13.448;2023-05-23T13:47:11;18.95;;;15.75;;
37945;SDS011;23769;52.478;13.448;2023-05-23T13:49:38;21.13;;;17.13;;
37945;SDS011;23769;52.478;13.448;2023-05-23T13:52:07;21.40;;;17.27;;
37945;SDS011;23769;52.478;13.448;2023-05-23T13:54:34;23.35;;;17.55;;
37945;SDS011;23769;52.478;13.448;2023-05-23T13:57:01;19.65;;;15.60;;
37945;SDS011;23769;52.478;13.448;2023-05-23T13:59:28;20.40;;;15.95;;
37945;SDS011;23769;52.478;13.448;2023-05-23T14:01:57;20.33;;;16.75;;
37945;SDS011;23769;52.478;13.448;2023-05-23T14:04:24;21.38;;;16.08;;
37945;SDS011;23769;52.478;13.448;2023-05-23T14:06:51;18.08;;;13.88;;
37945;SDS011;23769;52.478;13.448;2023-05-23T14:09:19;21.58;;;13.45;;
37945;SDS011;23769;52.478;13.448;2023-05-23T14:11:46;19.83;;;13.50;;
37945;SDS011;23769;52.478;13.448;2023-05-23T14:14:15;17.35;;;13.70;;
37945;SDS011;23769;52.478;13.448;2023-05-23T14:16:42;16.15;;;12.55;;
37945;SDS011;23769;52.478;13.448;2023-05-23T14:19:11;17.13;;;13.45;;
37945;SDS011;23769;52.478;13.448;2023-05-23T14:21:38;17.98;;;13.77;;
37945;SDS011;23769;52.478;13.448;2023-05-23T14:24:05;18.92;;;14.75;;
37945;SDS011;23769;52.478;13.448;2023-05-23T14:26:33;19.70;;;15.35;;
37945;SDS011;23769;52.478;13.448;2023-05-23T14:29:00;18.50;;;14.35;;
37945;SDS011;23769;52.478;13.448;2023-05-23T14:31:28;23.33;;;15.85;;